createdAt,value
2018-01-02T00:00:51.446Z,0
2018-01-02T00:02:01.252Z,0
2018-01-02T00:03:11.388Z,0
2018-01-02T00:04:21.465Z,0
2018-01-02T00:05:31.524Z,0
2018-01-02T00:06:41.631Z,0
2018-01-02T00:07:51.704Z,0
2018-01-02T00:09:01.757Z,0
2018-01-02T00:10:11.838Z,0
2018-01-02T00:11:21.909Z,0
2018-01-02T00:12:31.969Z,0
2018-01-02T00:13:42.024Z,0
2018-01-02T00:14:52.094Z,0
2018-01-02T00:16:01.896Z,0
2018-01-02T00:17:11.957Z,0
2018-01-02T00:18:22.026Z,0
2018-01-02T00:19:31.817Z,0
2018-01-02T00:20:41.880Z,0
2018-01-02T00:21:51.953Z,0
2018-01-02T00:23:02.013Z,0
2018-01-02T00:24:12.173Z,0
2018-01-02T00:25:22.240Z,0
2018-01-02T00:26:32.006Z,0
2018-01-02T00:27:42.052Z,0
2018-01-02T00:28:51.866Z,0
2018-01-02T00:30:01.906Z,0
2018-01-02T00:31:12.003Z,0
2018-01-02T00:32:22.048Z,0
2018-01-02T00:33:32.086Z,0
2018-01-02T00:34:42.130Z,0
2018-01-02T00:35:52.200Z,0
2018-01-02T00:37:02.264Z,0
2018-01-02T00:38:12.325Z,0
2018-01-02T00:39:22.372Z,0
2018-01-02T00:40:32.429Z,0
2018-01-02T00:41:42.483Z,0
2018-01-02T00:42:52.521Z,0
2018-01-02T00:44:02.574Z,0
2018-01-02T00:45:12.097Z,0
2018-01-02T00:46:22.157Z,0
2018-01-02T00:47:32.229Z,0
2018-01-02T00:48:42.349Z,0
2018-01-02T00:49:52.413Z,0
2018-01-02T00:51:02.217Z,0
2018-01-02T00:52:12.017Z,0
2018-01-02T00:53:22.121Z,0
2018-01-02T00:54:32.217Z,0
2018-01-02T00:55:42.027Z,0
2018-01-02T00:56:52.068Z,0
2018-01-02T00:58:01.858Z,0
2018-01-02T00:59:11.661Z,0
2018-01-02T01:00:21.799Z,0
2018-01-02T01:01:31.355Z,0
2018-01-02T01:02:41.418Z,0
2018-01-02T01:03:51.225Z,0
2018-01-02T01:05:01.006Z,0
2018-01-02T01:06:11.118Z,0
2018-01-02T01:07:21.180Z,0
2018-01-02T01:08:31.271Z,0
2018-01-02T01:09:41.330Z,0
2018-01-02T01:10:51.404Z,0
2018-01-02T01:12:01.218Z,0
2018-01-02T01:13:11.291Z,0
2018-01-02T01:14:21.329Z,0
2018-01-02T01:15:31.365Z,0
2018-01-02T01:16:41.416Z,0
2018-01-02T01:17:51.480Z,0
2018-01-02T01:19:01.582Z,0
2018-01-02T01:20:11.614Z,0
2018-01-02T01:21:21.160Z,0
2018-01-02T01:22:31.220Z,0
2018-01-02T01:23:41.282Z,0
2018-01-02T01:24:51.391Z,0
2018-01-02T01:26:02.495Z,0
2018-01-02T01:27:12.540Z,0
2018-01-02T01:28:22.625Z,0
2018-01-02T01:29:32.682Z,0
2018-01-02T01:30:42.734Z,0
2018-01-02T01:31:52.816Z,0
2018-01-02T01:33:02.882Z,0
2018-01-02T01:34:12.930Z,0
2018-01-02T01:35:22.572Z,0
2018-01-02T01:36:32.378Z,0
2018-01-02T01:37:42.431Z,0
2018-01-02T01:38:52.485Z,0
2018-01-02T01:40:02.285Z,0
2018-01-02T01:41:12.150Z,0
2018-01-02T01:42:22.206Z,0
2018-01-02T01:43:32.305Z,0
2018-01-02T01:44:42.108Z,0
2018-01-02T01:45:52.154Z,0
2018-01-02T01:47:02.201Z,0
2018-01-02T01:48:12.261Z,0
2018-01-02T01:49:22.052Z,0
2018-01-02T01:50:32.108Z,0
2018-01-02T01:51:42.141Z,0
2018-01-02T01:52:52.243Z,0
2018-01-02T01:54:02.062Z,0
2018-01-02T01:55:11.853Z,0
2018-01-02T01:56:21.922Z,0
2018-01-02T01:57:31.980Z,0
2018-01-02T01:58:41.287Z,0
2018-01-02T01:59:51.066Z,0
2018-01-02T02:01:01.117Z,0
2018-01-02T02:02:11.162Z,0
2018-01-02T02:03:21.201Z,0
2018-01-02T02:04:31.245Z,0
2018-01-02T02:05:41.291Z,0
2018-01-02T02:06:51.347Z,0
2018-01-02T02:08:01.400Z,0
2018-01-02T02:09:11.454Z,0
2018-01-02T02:10:21.509Z,0
2018-01-02T02:11:31.557Z,0
2018-01-02T02:12:41.607Z,0
2018-01-02T02:13:51.663Z,0
2018-01-02T02:15:01.706Z,0
2018-01-02T02:16:11.813Z,0
2018-01-02T02:17:21.854Z,0
2018-01-02T02:18:31.631Z,0
2018-01-02T02:19:41.683Z,0
2018-01-02T02:20:51.742Z,0
2018-01-02T02:22:01.579Z,0
2018-01-02T02:23:11.632Z,0
2018-01-02T02:24:21.679Z,0
2018-01-02T02:25:31.730Z,0
2018-01-02T02:26:41.254Z,0
2018-01-02T02:27:51.356Z,0
2018-01-02T02:29:01.414Z,0
2018-01-02T02:30:11.461Z,0
2018-01-02T02:31:21.505Z,0
2018-01-02T02:32:31.302Z,0
2018-01-02T02:33:41.362Z,0
2018-01-02T02:34:50.911Z,0
2018-01-02T02:36:00.967Z,0
2018-01-02T02:37:10.814Z,0
2018-01-02T02:38:20.587Z,0
2018-01-02T02:39:30.689Z,0
2018-01-02T02:40:40.478Z,0
2018-01-02T02:41:50.538Z,0
2018-01-02T02:43:00.344Z,0
2018-01-02T02:44:10.386Z,0
2018-01-02T02:45:20.436Z,0
2018-01-02T02:46:30.493Z,0
2018-01-02T02:47:40.295Z,0
2018-01-02T02:48:50.357Z,0
2018-01-02T02:50:00.173Z,0
2018-01-02T02:51:10.238Z,0
2018-01-02T02:52:20.310Z,0
2018-01-02T02:53:30.126Z,0
2018-01-02T02:54:40.170Z,0
2018-01-02T02:55:50.231Z,0
2018-01-02T02:57:00.285Z,0
2018-01-02T02:58:10.338Z,0
2018-01-02T02:59:20.420Z,0
2018-01-02T03:00:30.467Z,0
2018-01-02T03:01:40.527Z,0
2018-01-02T03:34:13.963Z,0
2018-01-02T03:35:24.009Z,0
2018-01-02T03:36:33.786Z,0
2018-01-02T03:37:43.813Z,0
2018-01-02T03:38:53.865Z,0
2018-01-02T03:40:03.711Z,0
2018-01-02T03:41:13.504Z,0
2018-01-02T03:42:23.557Z,0
2018-01-02T03:43:33.616Z,0
2018-01-02T03:44:43.139Z,0
2018-01-02T03:45:53.201Z,0
2018-01-02T03:47:03.293Z,0
2018-01-02T03:48:12.306Z,0
2018-01-02T03:49:22.106Z,0
2018-01-02T03:50:32.151Z,0
2018-01-02T03:51:41.946Z,0
2018-01-02T03:52:51.994Z,0
2018-01-02T03:54:01.799Z,0
2018-01-02T03:55:11.855Z,0
2018-01-02T03:56:21.907Z,0
2018-01-02T03:57:31.704Z,0
2018-01-02T03:58:41.755Z,0
2018-01-02T03:59:51.807Z,0
2018-01-02T04:01:02.084Z,0
2018-01-02T04:02:12.132Z,0
2018-01-02T04:03:21.932Z,0
2018-01-02T04:04:31.979Z,0
2018-01-02T04:05:41.780Z,0
2018-01-02T04:06:51.828Z,0
2018-01-02T04:08:01.899Z,0
2018-01-02T04:09:11.951Z,0
2018-01-02T04:10:22.009Z,0
2018-01-02T04:11:32.059Z,0
2018-01-02T04:12:42.112Z,0
2018-01-02T04:13:52.165Z,0
2018-01-02T04:15:02.275Z,0
2018-01-02T04:16:11.801Z,0
2018-01-02T04:17:21.585Z,0
2018-01-02T04:18:31.625Z,0
2018-01-02T04:19:41.407Z,0
2018-01-02T04:20:51.350Z,0
2018-01-02T04:22:01.387Z,0
2018-01-02T04:23:11.187Z,0
2018-01-02T04:24:21.223Z,0
2018-01-02T04:25:30.998Z,0
2018-01-02T04:26:41.087Z,0
2018-01-02T04:27:50.856Z,0
2018-01-02T04:29:00.906Z,0
2018-01-02T04:30:10.962Z,0
2018-01-02T04:31:21.019Z,0
2018-01-02T04:32:31.056Z,0
2018-01-02T04:33:41.103Z,0
2018-01-02T04:34:51.162Z,0
2018-01-02T04:36:01.212Z,0
2018-01-02T04:37:11.004Z,0
2018-01-02T04:38:21.038Z,0
2018-01-02T04:39:31.092Z,0
2018-01-02T04:40:41.128Z,0
2018-01-02T04:41:50.648Z,0
2018-01-02T04:43:00.698Z,0
2018-01-02T04:44:10.494Z,0
2018-01-02T04:45:20.321Z,0
2018-01-02T04:46:30.357Z,0
2018-01-02T04:47:40.410Z,0
2018-01-02T04:48:50.204Z,0
2018-01-02T04:50:00.253Z,0
2018-01-02T04:51:10.296Z,0
2018-01-02T04:52:19.828Z,0
2018-01-02T04:53:29.880Z,0
2018-01-02T04:54:39.915Z,0
2018-01-02T04:55:49.761Z,0
2018-01-02T04:56:59.814Z,0
2018-01-02T04:58:09.595Z,0
2018-01-02T04:59:19.636Z,0
2018-01-02T05:00:29.690Z,0
2018-01-02T05:01:39.796Z,0
2018-01-02T05:02:49.576Z,0
2018-01-02T05:03:59.634Z,0
2018-01-02T05:05:09.685Z,0
2018-01-02T05:06:19.747Z,0
2018-01-02T05:07:29.013Z,0
2018-01-02T05:08:39.056Z,0
2018-01-02T05:09:48.591Z,0
2018-01-02T05:10:58.639Z,0
2018-01-02T05:12:08.707Z,0
2018-01-02T05:13:18.497Z,0
2018-01-02T05:14:28.550Z,0
2018-01-02T05:15:38.596Z,0
2018-01-02T05:16:48.393Z,0
2018-01-02T05:17:58.464Z,0
2018-01-02T05:19:08.516Z,0
2018-01-02T05:20:18.058Z,0
2018-01-02T05:21:28.101Z,0
2018-01-02T05:22:38.162Z,0
2018-01-02T05:23:47.948Z,0
2018-01-02T05:24:57.804Z,0
2018-01-02T05:26:07.848Z,0
2018-01-02T05:27:17.881Z,0
2018-01-02T05:28:27.958Z,0
2018-01-02T05:29:38.003Z,0
2018-01-02T05:30:47.859Z,0
2018-01-02T05:31:57.672Z,0
2018-01-02T05:33:07.727Z,0
2018-01-02T05:34:17.773Z,0
2018-01-02T05:35:27.567Z,0
2018-01-02T05:36:37.686Z,0
2018-01-02T05:37:47.733Z,0
2018-01-02T05:38:57.783Z,0
2018-01-02T05:40:07.847Z,0
2018-01-02T05:41:17.899Z,0
2018-01-02T05:42:27.714Z,0
2018-01-02T05:43:37.809Z,0
2018-01-02T05:44:47.871Z,0
2018-01-02T05:45:57.920Z,0
2018-01-02T05:47:07.954Z,0
2018-01-02T05:48:17.752Z,0
2018-01-02T05:49:27.794Z,0
2018-01-02T05:50:37.588Z,0
2018-01-02T05:51:47.369Z,0
2018-01-02T05:52:57.438Z,0
2018-01-02T05:54:07.534Z,0
2018-01-02T05:55:17.585Z,0
2018-01-02T05:56:27.636Z,0
2018-01-02T05:57:37.685Z,0
2018-01-02T05:58:47.738Z,0
2018-01-02T05:59:57.865Z,0
2018-01-02T06:01:07.929Z,0
2018-01-02T06:02:17.707Z,0
2018-01-02T06:03:27.752Z,0
2018-01-02T06:04:37.810Z,0
2018-01-02T06:05:47.655Z,0
2018-01-02T06:06:57.435Z,0
2018-01-02T06:08:07.530Z,0
2018-01-02T06:09:17.067Z,0
2018-01-02T06:10:26.850Z,0
2018-01-02T06:11:36.945Z,0
2018-01-02T06:12:46.738Z,0
2018-01-02T06:13:56.801Z,0
2018-01-02T06:15:06.861Z,4
2018-01-02T06:16:16.899Z,4
2018-01-02T06:17:26.756Z,0
2018-01-02T06:18:36.820Z,0
2018-01-02T06:19:46.883Z,4
2018-01-02T06:20:56.935Z,4
2018-01-02T06:22:06.730Z,4
2018-01-02T06:23:16.768Z,8
2018-01-02T06:24:26.824Z,8
2018-01-02T06:25:36.864Z,8
2018-01-02T06:26:46.920Z,8
2018-01-02T06:27:56.975Z,12
2018-01-02T06:29:07.031Z,12
2018-01-02T06:30:17.104Z,16
2018-01-02T06:31:27.150Z,20
2018-01-02T06:32:37.191Z,24
2018-01-02T06:33:47.253Z,28
2018-01-02T06:34:57.261Z,32
2018-01-02T06:36:07.056Z,36
2018-01-02T06:37:17.105Z,40
2018-01-02T06:38:27.152Z,48
2018-01-02T06:39:37.235Z,52
2018-01-02T06:40:47.353Z,60
2018-01-02T06:41:57.396Z,68
2018-01-02T06:43:07.434Z,76
2018-01-02T06:44:17.494Z,80
2018-01-02T06:45:27.302Z,88
2018-01-02T06:46:37.097Z,88
2018-01-02T06:47:47.211Z,96
2018-01-02T06:48:57.252Z,104
2018-01-02T06:50:07.303Z,108
2018-01-02T06:51:17.348Z,116
2018-01-02T06:52:27.832Z,128
2018-01-02T06:53:37.633Z,140
2018-01-02T06:54:47.678Z,156
2018-01-02T06:55:57.722Z,168
2018-01-02T06:57:07.767Z,184
2018-01-02T06:58:17.820Z,200
2018-01-02T06:59:27.646Z,216
2018-01-02T07:00:37.452Z,228
2018-01-02T07:01:47.486Z,244
2018-01-02T07:02:57.268Z,260
2018-01-02T07:04:07.315Z,272
2018-01-02T07:05:17.422Z,288
2018-01-02T07:06:27.472Z,312
2018-01-02T07:07:37.528Z,328
2018-01-02T07:08:47.583Z,344
2018-01-02T07:09:57.379Z,360
2018-01-02T07:11:07.165Z,376
2018-01-02T07:12:17.229Z,392
2018-01-02T07:13:27.281Z,412
2018-01-02T07:14:37.341Z,428
2018-01-02T07:15:47.406Z,448
2018-01-02T07:16:57.470Z,464
2018-01-02T07:18:07.538Z,484
2018-01-02T07:19:17.588Z,504
2018-01-02T07:20:27.386Z,524
2018-01-02T07:21:37.186Z,544
2018-01-02T07:22:47.238Z,568
2018-01-02T07:23:57.045Z,592
2018-01-02T07:25:07.132Z,616
2018-01-02T07:26:17.177Z,644
2018-01-02T07:27:27.252Z,672
2018-01-02T07:28:37.052Z,700
2018-01-02T07:29:47.093Z,724
2018-01-02T07:30:57.141Z,756
2018-01-02T07:32:07.219Z,792
2018-01-02T07:33:17.328Z,824
2018-01-02T07:34:27.374Z,860
2018-01-02T07:35:37.416Z,920
2018-01-02T07:36:47.454Z,976
2018-01-02T07:37:57.487Z,1080
2018-01-02T07:39:07.588Z,1140
2018-01-02T07:40:17.653Z,1228
2018-01-02T07:41:27.454Z,1428
2018-01-02T07:42:37.512Z,1476
2018-01-02T07:43:47.040Z,1292
2018-01-02T07:44:56.840Z,1352
2018-01-02T07:46:06.652Z,1612
2018-01-02T07:47:16.714Z,1692
2018-01-02T07:48:26.513Z,1644
2018-01-02T07:49:36.574Z,1656
2018-01-02T07:50:46.719Z,1480
2018-01-02T07:51:56.780Z,1512
2018-01-02T07:53:06.577Z,1564
2018-01-02T07:54:16.633Z,1600
2018-01-02T07:55:26.701Z,1588
2018-01-02T07:56:36.488Z,1744
2018-01-02T07:57:46.537Z,1868
2018-01-02T07:58:56.577Z,2116
2018-01-02T08:00:06.640Z,2440
2018-01-02T08:01:16.686Z,2484
2018-01-02T08:02:26.493Z,2636
2018-01-02T08:03:36.272Z,2696
2018-01-02T08:04:46.321Z,2716
2018-01-02T08:05:56.382Z,2776
2018-01-02T08:07:06.437Z,2836
2018-01-02T08:08:16.506Z,2864
2018-01-02T08:09:26.569Z,2916
2018-01-02T08:10:36.367Z,2952
2018-01-02T08:11:46.171Z,2988
2018-01-02T08:12:56.297Z,3024
2018-01-02T08:14:06.406Z,3060
2018-01-02T08:15:16.448Z,3096
2018-01-02T08:16:26.518Z,3148
2018-01-02T08:17:36.565Z,3196
2018-01-02T08:18:46.603Z,3248
2018-01-02T08:19:56.405Z,3308
2018-01-02T08:21:06.197Z,3372
2018-01-02T08:22:16.279Z,3436
2018-01-02T08:23:26.319Z,3504
2018-01-02T08:24:36.375Z,3568
2018-01-02T08:25:46.424Z,3648
2018-01-02T08:26:56.549Z,3728
2018-01-02T08:28:06.610Z,3816
2018-01-02T08:29:16.673Z,3896
2018-01-02T08:30:26.458Z,3976
2018-01-02T08:31:36.614Z,4052
2018-01-02T08:32:46.700Z,4132
2018-01-02T08:33:56.520Z,4204
2018-01-02T08:35:06.581Z,4276
2018-01-02T08:36:17.175Z,4284
2018-01-02T08:37:27.225Z,4360
2018-01-02T08:38:37.277Z,4456
2018-01-02T08:39:47.052Z,4504
2018-01-02T08:40:57.087Z,4004
2018-01-02T08:42:06.882Z,3576
2018-01-02T08:43:16.923Z,3336
2018-01-02T08:44:26.735Z,4232
2018-01-02T08:45:36.784Z,4680
2018-01-02T08:46:46.837Z,4480
2018-01-02T08:47:56.900Z,4488
2018-01-02T08:49:06.697Z,4448
2018-01-02T08:50:16.477Z,4396
2018-01-02T08:51:26.264Z,4412
2018-01-02T08:52:36.304Z,4520
2018-01-02T08:53:46.094Z,4448
2018-01-02T08:54:55.901Z,3864
2018-01-02T08:56:05.957Z,3528
2018-01-02T08:57:16.004Z,3336
2018-01-02T08:58:26.078Z,3340
2018-01-02T08:59:35.867Z,3148
2018-01-02T09:00:46.569Z,2984
2018-01-02T09:01:56.637Z,2936
2018-01-02T09:03:06.440Z,2916
2018-01-02T09:04:16.241Z,2928
2018-01-02T09:05:26.039Z,2924
2018-01-02T09:06:36.107Z,2932
2018-01-02T09:07:45.912Z,2920
2018-01-02T09:08:55.755Z,2928
2018-01-02T09:10:05.248Z,2904
2018-01-02T09:11:15.044Z,2868
2018-01-02T09:12:25.098Z,2764
2018-01-02T09:13:35.143Z,2716
2018-01-02T09:14:45.265Z,2692
2018-01-02T09:15:55.331Z,2684
2018-01-02T09:17:05.398Z,2696
2018-01-02T09:18:15.241Z,2696
2018-01-02T09:19:25.302Z,2700
2018-01-02T09:20:35.361Z,2712
2018-01-02T09:21:45.496Z,2716
2018-01-02T09:22:55.586Z,2720
2018-01-02T09:24:05.637Z,2736
2018-01-02T09:25:15.696Z,2760
2018-01-02T09:26:25.485Z,2940
2018-01-02T09:27:35.562Z,2836
2018-01-02T09:28:45.619Z,2788
2018-01-02T09:29:55.657Z,2780
2018-01-02T09:31:05.705Z,2720
2018-01-02T09:32:15.492Z,2660
2018-01-02T09:33:25.545Z,2624
2018-01-02T09:34:35.610Z,2592
2018-01-02T09:35:45.410Z,2580
2018-01-02T09:36:55.484Z,2568
2018-01-02T09:38:05.538Z,2556
2018-01-02T09:39:15.409Z,2564
2018-01-02T09:40:25.472Z,2584
2018-01-02T09:41:35.540Z,2608
2018-01-02T09:42:46.298Z,2636
2018-01-02T09:43:56.089Z,2672
2018-01-02T09:45:06.168Z,2712
2018-01-02T09:46:16.237Z,2748
2018-01-02T09:47:26.285Z,2792
2018-01-02T09:48:36.348Z,2836
2018-01-02T09:49:46.420Z,2884
2018-01-02T09:50:56.476Z,2936
2018-01-02T09:52:06.543Z,2984
2018-01-02T09:53:16.603Z,3036
2018-01-02T09:54:26.662Z,3084
2018-01-02T09:55:36.444Z,3112
2018-01-02T09:56:46.499Z,3124
2018-01-02T09:57:56.580Z,3148
2018-01-02T09:59:06.424Z,3160
2018-01-02T10:00:16.494Z,3144
2018-01-02T10:01:26.533Z,3136
2018-01-02T10:02:36.594Z,3116
2018-01-02T10:03:46.659Z,3104
2018-01-02T10:04:56.760Z,3112
2018-01-02T10:06:06.547Z,3104
2018-01-02T10:07:16.341Z,3104
2018-01-02T10:08:26.401Z,3120
2018-01-02T10:09:36.219Z,3140
2018-01-02T10:10:46.266Z,3164
2018-01-02T10:11:56.329Z,3180
2018-01-02T10:13:06.120Z,3176
2018-01-02T10:14:16.201Z,3184
2018-01-02T10:15:26.247Z,3180
2018-01-02T10:16:36.043Z,3184
2018-01-02T10:17:46.117Z,3192
2018-01-02T10:18:56.210Z,3200
2018-01-02T10:20:06.256Z,3212
2018-01-02T10:21:16.045Z,3208
2018-01-02T10:22:26.220Z,3204
2018-01-02T10:23:36.014Z,3180
2018-01-02T10:24:46.074Z,3144
2018-01-02T10:25:55.875Z,3096
2018-01-02T10:27:05.414Z,3048
2018-01-02T10:28:15.463Z,2996
2018-01-02T10:29:25.514Z,2952
2018-01-02T10:30:35.559Z,2956
2018-01-02T10:31:45.612Z,3024
2018-01-02T10:32:55.693Z,3164
2018-01-02T10:34:05.753Z,3148
2018-01-02T10:35:15.566Z,3900
2018-01-02T10:36:25.626Z,3788
2018-01-02T10:37:35.681Z,3684
2018-01-02T10:38:45.779Z,3660
2018-01-02T10:39:55.838Z,4028
2018-01-02T10:41:05.891Z,3384
2018-01-02T10:42:15.993Z,3768
2018-01-02T10:43:26.047Z,3392
2018-01-02T10:44:36.104Z,3332
2018-01-02T10:45:45.882Z,3340
2018-01-02T10:46:55.935Z,3376
2018-01-02T10:48:06.005Z,3480
2018-01-02T10:49:16.084Z,3552
2018-01-02T10:50:26.136Z,3496
2018-01-02T10:51:36.195Z,3856
2018-01-02T10:52:46.232Z,3812
2018-01-02T10:53:56.031Z,3592
2018-01-02T10:55:06.093Z,3456
2018-01-02T10:56:16.167Z,3528
2018-01-02T10:57:26.237Z,3692
2018-01-02T10:58:36.292Z,3604
2018-01-02T10:59:46.110Z,3720
2018-01-02T11:00:56.176Z,4112
2018-01-02T11:02:06.267Z,3720
2018-01-02T11:03:16.077Z,3736
2018-01-02T11:04:25.884Z,3500
2018-01-02T11:05:35.942Z,3392
2018-01-02T11:06:46.016Z,3336
2018-01-02T11:07:56.062Z,3392
2018-01-02T11:09:06.114Z,3252
2018-01-02T11:10:16.183Z,3264
2018-01-02T11:11:26.242Z,3332
2018-01-02T11:12:36.305Z,3260
2018-01-02T11:13:46.358Z,3212
2018-01-02T11:14:56.416Z,3172
2018-01-02T11:16:06.549Z,3112
2018-01-02T11:17:16.608Z,3096
2018-01-02T11:18:26.685Z,3080
2018-01-02T11:19:36.739Z,3092
2018-01-02T11:20:46.279Z,3120
2018-01-02T11:21:56.346Z,3108
2018-01-02T11:23:06.412Z,3032
2018-01-02T11:24:16.211Z,2944
2018-01-02T11:25:26.283Z,2852
2018-01-02T11:26:36.381Z,2764
2018-01-02T11:27:46.446Z,2696
2018-01-02T11:28:56.268Z,2664
2018-01-02T11:30:06.078Z,2640
2018-01-02T11:31:16.149Z,2632
2018-01-02T11:32:26.214Z,2616
2018-01-02T11:33:36.024Z,2596
2018-01-02T11:34:46.073Z,2572
2018-01-02T11:35:55.616Z,2552
2018-01-02T11:37:05.754Z,2568
2018-01-02T11:38:15.817Z,2596
2018-01-02T11:39:25.877Z,2632
2018-01-02T11:40:36.140Z,2664
2018-01-02T11:41:46.214Z,2684
2018-01-02T11:42:56.328Z,2708
2018-01-02T11:44:06.380Z,2740
2018-01-02T11:45:16.441Z,2768
2018-01-02T11:46:26.507Z,2780
2018-01-02T11:47:36.303Z,2780
2018-01-02T11:48:46.433Z,2764
2018-01-02T11:49:56.514Z,2756
2018-01-02T11:51:06.599Z,2764
2018-01-02T11:52:16.404Z,2776
2018-01-02T11:53:26.213Z,2800
2018-01-02T11:54:36.028Z,2824
2018-01-02T11:55:46.096Z,2844
2018-01-02T11:56:55.919Z,2872
2018-01-02T11:58:06.006Z,2916
2018-01-02T11:59:16.068Z,2988
2018-01-02T12:00:26.122Z,2988
2018-01-02T12:01:36.186Z,3044
2018-01-02T12:02:46.237Z,3112
2018-01-02T12:03:56.291Z,3240
2018-01-02T12:05:06.098Z,3416
2018-01-02T12:06:16.152Z,3408
2018-01-02T12:07:26.215Z,3324
2018-01-02T12:08:35.772Z,3288
2018-01-02T12:09:45.843Z,3324
2018-01-02T12:10:55.643Z,3248
2018-01-02T12:12:05.466Z,3404
2018-01-02T12:13:15.550Z,3340
2018-01-02T12:14:25.591Z,3268
2018-01-02T12:15:35.662Z,3404
2018-01-02T12:16:45.494Z,4160
2018-01-02T12:17:55.615Z,4184
2018-01-02T12:19:05.695Z,4352
2018-01-02T12:20:15.504Z,4612
2018-01-02T12:21:25.317Z,4332
2018-01-02T12:22:35.388Z,3664
2018-01-02T12:23:45.471Z,3528
2018-01-02T12:24:54.988Z,3260
2018-01-02T12:26:05.053Z,3344
2018-01-02T12:27:15.127Z,3244
2018-01-02T12:28:24.927Z,3216
2018-01-02T12:29:34.984Z,3536
2018-01-02T12:30:44.795Z,3616
2018-01-02T12:31:54.874Z,3628
2018-01-02T12:33:04.940Z,4232
2018-01-02T12:34:15.018Z,4376
2018-01-02T12:35:25.114Z,3632
2018-01-02T12:36:34.990Z,3488
2018-01-02T12:37:45.052Z,3192
2018-01-02T12:38:54.856Z,2832
2018-01-02T12:40:05.128Z,2680
2018-01-02T12:41:15.202Z,2564
2018-01-02T12:42:25.274Z,2516
2018-01-02T12:43:35.347Z,2496
2018-01-02T12:44:45.399Z,2484
2018-01-02T12:45:55.465Z,2476
2018-01-02T12:47:05.289Z,2456
2018-01-02T12:48:15.382Z,2432
2018-01-02T12:49:25.246Z,2416
2018-01-02T12:50:34.788Z,2384
2018-01-02T12:51:44.835Z,2372
2018-01-02T12:52:54.940Z,2356
2018-01-02T12:54:04.798Z,2340
2018-01-02T12:55:14.869Z,2332
2018-01-02T12:56:24.917Z,2340
2018-01-02T12:57:35.019Z,2364
2018-01-02T12:58:45.084Z,2376
2018-01-02T12:59:55.149Z,2368
2018-01-02T13:01:05.214Z,2344
2018-01-02T13:02:15.301Z,2324
2018-01-02T13:03:25.379Z,2296
2018-01-02T13:04:35.442Z,2276
2018-01-02T13:05:45.295Z,2248
2018-01-02T13:06:55.377Z,2220
2018-01-02T13:08:04.916Z,2168
2018-01-02T13:09:14.715Z,2116
2018-01-02T13:10:24.787Z,2064
2018-01-02T13:11:34.910Z,2016
2018-01-02T13:12:44.964Z,1976
2018-01-02T13:13:55.036Z,1928
2018-01-02T13:15:04.587Z,1888
2018-01-02T13:16:14.389Z,1848
2018-01-02T13:17:24.471Z,1820
2018-01-02T13:18:34.538Z,1796
2018-01-02T13:19:44.602Z,1768
2018-01-02T13:20:54.652Z,1756
2018-01-02T13:22:04.712Z,1752
2018-01-02T13:23:14.794Z,1752
2018-01-02T13:24:24.893Z,1744
2018-01-02T13:25:34.965Z,1724
2018-01-02T13:26:44.795Z,1680
2018-01-02T13:27:54.608Z,1636
2018-01-02T13:29:04.732Z,1588
2018-01-02T13:30:14.827Z,1544
2018-01-02T13:31:24.356Z,1508
2018-01-02T13:32:34.435Z,1484
2018-01-02T13:33:44.252Z,1472
2018-01-02T13:34:54.352Z,1468
2018-01-02T13:36:04.445Z,1480
2018-01-02T13:37:14.518Z,1504
2018-01-02T13:38:24.334Z,1524
2018-01-02T13:39:34.389Z,1552
2018-01-02T13:40:44.512Z,1580
2018-01-02T13:41:54.315Z,1572
2018-01-02T13:43:04.369Z,1508
2018-01-02T13:44:14.450Z,1476
2018-01-02T13:45:24.555Z,1448
2018-01-02T13:46:34.610Z,1416
2018-01-02T13:47:44.673Z,1400
2018-01-02T13:48:54.469Z,1396
2018-01-02T13:50:04.274Z,1420
2018-01-02T13:51:14.326Z,1444
2018-01-02T13:52:24.390Z,1520
2018-01-02T13:53:34.441Z,1448
2018-01-02T13:54:44.531Z,1588
2018-01-02T13:55:54.611Z,2004
2018-01-02T13:57:04.675Z,1920
2018-01-02T13:58:14.738Z,1896
2018-01-02T13:59:24.580Z,1948
2018-01-02T14:00:34.381Z,2104
2018-01-02T14:01:44.457Z,1604
2018-01-02T14:02:54.286Z,1360
2018-01-02T14:04:04.178Z,1412
2018-01-02T14:05:14.248Z,1436
2018-01-02T14:06:24.046Z,1348
2018-01-02T14:07:33.842Z,1272
2018-01-02T14:08:43.660Z,1248
2018-01-02T14:09:53.719Z,1256
2018-01-02T14:11:03.858Z,1256
2018-01-02T14:12:13.914Z,1272
2018-01-02T14:13:24.018Z,1340
2018-01-02T14:14:34.107Z,1332
2018-01-02T14:15:44.175Z,1356
2018-01-02T14:16:54.245Z,1392
2018-01-02T14:18:04.088Z,1352
2018-01-02T14:19:14.147Z,1280
2018-01-02T14:20:24.205Z,1228
2018-01-02T14:21:34.254Z,1172
2018-01-02T14:22:44.314Z,1112
2018-01-02T14:23:54.400Z,1064
2018-01-02T14:25:04.473Z,1020
2018-01-02T14:26:14.556Z,976
2018-01-02T14:27:24.616Z,932
2018-01-02T14:28:34.427Z,884
2018-01-02T14:29:44.490Z,844
2018-01-02T14:30:54.576Z,804
2018-01-02T14:32:04.630Z,776
2018-01-02T14:33:14.715Z,760
2018-01-02T14:34:24.786Z,724
2018-01-02T14:35:34.886Z,692
2018-01-02T14:36:44.681Z,676
2018-01-02T14:37:54.723Z,660
2018-01-02T14:39:04.778Z,636
2018-01-02T14:40:14.854Z,600
2018-01-02T14:41:24.907Z,556
2018-01-02T14:42:34.974Z,532
2018-01-02T14:43:45.049Z,512
2018-01-02T14:44:55.108Z,480
2018-01-02T14:46:05.163Z,452
2018-01-02T14:47:15.258Z,432
2018-01-02T14:48:25.324Z,420
2018-01-02T14:49:35.374Z,404
2018-01-02T14:50:44.913Z,388
2018-01-02T14:51:54.983Z,380
2018-01-02T14:53:05.112Z,348
2018-01-02T14:54:15.181Z,332
2018-01-02T14:55:25.253Z,316
2018-01-02T14:56:34.795Z,296
2018-01-02T14:57:44.846Z,276
2018-01-02T14:58:54.671Z,260
2018-01-02T15:00:04.711Z,240
2018-01-02T15:01:14.774Z,224
2018-01-02T15:02:24.576Z,212
2018-01-02T15:03:34.665Z,196
2018-01-02T15:04:44.727Z,188
2018-01-02T15:05:54.789Z,176
2018-01-02T15:07:04.883Z,168
2018-01-02T15:08:14.692Z,160
2018-01-02T15:09:24.483Z,144
2018-01-02T15:10:34.578Z,132
2018-01-02T15:11:44.129Z,120
2018-01-02T15:12:54.167Z,104
2018-01-02T15:14:04.231Z,96
2018-01-02T15:15:13.776Z,84
2018-01-02T15:16:23.922Z,76
2018-01-02T15:17:33.734Z,68
2018-01-02T15:18:43.793Z,60
2018-01-02T15:19:53.604Z,52
2018-01-02T15:21:03.680Z,44
2018-01-02T15:22:13.828Z,40
2018-01-02T15:23:23.919Z,32
2018-01-02T15:24:33.998Z,32
2018-01-02T15:25:44.071Z,24
2018-01-02T15:26:54.731Z,20
2018-01-02T15:28:05.042Z,16
2018-01-02T15:29:14.913Z,16
2018-01-02T15:30:24.970Z,12
2018-01-02T15:31:35.055Z,8
2018-01-02T15:32:44.859Z,8
2018-01-02T15:33:54.978Z,8
2018-01-02T15:37:37.608Z,4
2018-01-02T15:38:47.736Z,4
2018-01-02T15:39:57.807Z,4
2018-01-02T15:41:07.623Z,4
2018-01-02T15:42:17.429Z,0
2018-01-02T15:43:27.498Z,0
2018-01-02T15:44:37.631Z,4
2018-01-02T15:45:47.708Z,4
2018-01-02T15:46:57.494Z,0
2018-01-02T15:48:07.351Z,0
2018-01-02T15:49:17.176Z,0
2018-01-02T15:50:27.319Z,0
2018-01-02T15:51:37.404Z,0
2018-01-02T15:52:47.463Z,0
2018-01-02T15:53:57.531Z,0
2018-01-02T15:55:07.600Z,0
2018-01-02T15:56:17.447Z,0
2018-01-02T15:57:27.504Z,0
2018-01-02T15:58:37.314Z,0
2018-01-02T15:59:47.378Z,0
2018-01-02T16:00:57.465Z,0
2018-01-02T16:02:07.320Z,0
2018-01-02T16:03:17.103Z,0
2018-01-02T16:04:26.894Z,0
2018-01-02T16:05:36.962Z,0
2018-01-02T16:06:47.026Z,0
2018-01-02T16:07:57.092Z,0
2018-01-02T16:09:07.137Z,0
2018-01-02T16:10:17.232Z,0
2018-01-02T16:11:27.373Z,0
2018-01-02T16:12:37.433Z,0
2018-01-02T16:13:47.565Z,0
2018-01-02T16:14:57.623Z,0
2018-01-02T16:16:07.745Z,0
2018-01-02T16:17:17.823Z,0
2018-01-02T16:18:27.907Z,0
2018-01-02T16:19:37.760Z,0
2018-01-02T16:20:47.292Z,0
2018-01-02T16:21:57.356Z,0
2018-01-02T16:23:07.415Z,0
2018-01-02T16:24:17.460Z,0
2018-01-02T16:25:27.561Z,0
2018-01-02T16:26:37.626Z,0
2018-01-02T16:27:47.700Z,0
2018-01-02T16:28:57.505Z,0
2018-01-02T16:30:07.596Z,0
2018-01-02T16:31:17.653Z,0
2018-01-02T16:32:27.484Z,0
2018-01-02T16:33:37.307Z,0
2018-01-02T16:34:47.097Z,0
2018-01-02T16:35:56.895Z,0
2018-01-02T16:37:06.743Z,0
2018-01-02T16:38:16.803Z,0
2018-01-02T16:39:26.592Z,0
2018-01-02T16:40:36.382Z,0
2018-01-02T16:41:46.455Z,0
2018-01-02T16:42:56.240Z,0
2018-01-02T16:44:06.054Z,0
2018-01-02T16:45:15.856Z,0
2018-01-02T16:46:25.388Z,0
2018-01-02T16:47:35.192Z,0
2018-01-02T16:48:45.292Z,0
2018-01-02T16:49:55.101Z,0
2018-01-02T16:51:05.207Z,0
2018-01-02T16:52:15.270Z,0
2018-01-02T16:53:25.353Z,0
2018-01-02T16:54:35.422Z,0
2018-01-02T16:55:45.217Z,0